Time;durP1;ratioP1;P1;durP2;ratioP2;P2;SDS_P1;SDS_P2;PMS_P1;PMS_P2;Temp;Humidity;BMP_temperature;BMP_pressure;BME280_temperature;BME280_humidity;BME280_pressure;Samples;Min_cycle;Max_cycle;Signal;HPM_P1;HPM_P2
2023/01/04 00:01:04;;;;;;;4.53;2.33;;;;;;;7.37;100.00;101874.91;4923115;29;20024;-96
2023/01/04 00:03:30;;;;;;;9.45;2.47;;;;;;;7.28;100.00;101870.44;4925133;29;20048;-96
2023/01/04 00:06:04;;;;;;;4.82;2.30;;;;;;;7.29;100.00;101879.09;4919624;29;20036;-96
2023/01/04 00:08:48;;;;;;;4.30;2.20;;;;;;;7.29;100.00;101871.34;4922856;29;20032;-96
2023/01/04 00:11:16;;;;;;;6.53;2.42;;;;;;;7.23;100.00;101864.38;4927527;29;20020;-96
2023/01/04 00:14:25;;;;;;;5.30;2.30;;;;;;;7.25;100.00;101873.00;4929056;29;20110;-96
2023/01/04 00:17:02;;;;;;;5.82;2.42;;;;;;;7.24;100.00;101851.47;4925306;29;20036;-96
2023/01/04 00:19:27;;;;;;;5.70;2.53;;;;;;;7.26;100.00;101854.94;4926908;29;20032;-96
2023/01/04 00:22:30;;;;;;;6.03;2.40;;;;;;;7.24;100.00;101845.44;4931923;29;20030;-96
2023/01/04 00:24:57;;;;;;;7.55;2.80;;;;;;;7.23;100.00;101835.97;4938184;29;20032;-96
2023/01/04 00:27:35;;;;;;;7.90;2.50;;;;;;;7.23;100.00;101835.97;5062004;23;20071;-96
2023/01/04 00:30:00;;;;;;;5.65;2.58;;;;;;;7.21;100.00;101819.56;4953134;29;20031;-96
2023/01/04 00:32:33;;;;;;;7.30;2.63;;;;;;;7.25;100.00;101818.78;4952485;29;20083;-96
2023/01/04 00:34:59;;;;;;;5.88;2.40;;;;;;;7.24;100.00;101807.56;4948035;29;20024;-96
2023/01/04 00:37:25;;;;;;;5.70;2.60;;;;;;;7.25;100.00;101806.72;4947979;29;20024;-96
2023/01/04 00:39:50;;;;;;;7.00;2.70;;;;;;;7.25;100.00;101814.47;4943649;29;20027;-96
2023/01/04 00:42:29;;;;;;;3.58;2.33;;;;;;;7.24;100.00;101779.16;4944738;29;20027;-96
2023/01/04 00:45:09;;;;;;;7.32;2.45;;;;;;;7.28;100.00;101789.56;4943349;29;20599;-96
2023/01/04 00:47:50;;;;;;;4.95;2.50;;;;;;;7.30;100.00;101800.78;4941574;29;20032;-96
2023/01/04 00:50:32;;;;;;;5.30;2.30;;;;;;;7.28;100.00;101784.38;4929235;23;20060;-96
2023/01/04 00:53:18;;;;;;;3.50;2.38;;;;;;;7.31;100.00;101790.47;4902803;29;20104;-96
2023/01/04 00:55:44;;;;;;;4.15;2.40;;;;;;;7.40;100.00;101769.06;4852392;29;20036;-96
2023/01/04 00:58:27;;;;;;;7.40;2.40;;;;;;;7.35;100.00;101775.88;4900435;29;20061;-96
2023/01/04 01:01:06;;;;;;;5.05;2.55;;;;;;;7.36;100.00;101767.28;4900815;29;20025;-96
2023/01/04 01:03:32;;;;;;;4.55;2.30;;;;;;;7.38;100.00;101768.16;4902099;29;20052;-96
2023/01/04 01:06:13;;;;;;;5.40;2.27;;;;;;;7.41;100.00;101768.22;4901502;29;20039;-96
2023/01/04 01:08:38;;;;;;;4.32;2.10;;;;;;;7.39;100.00;101757.00;4902624;29;20466;-96
2023/01/04 01:11:06;;;;;;;4.53;2.30;;;;;;;7.36;100.00;101760.41;4904676;29;20111;-96
2023/01/04 01:13:48;;;;;;;5.78;2.20;;;;;;;7.43;100.00;101756.16;4931423;23;20056;-96
2023/01/04 01:16:17;;;;;;;4.45;2.30;;;;;;;7.43;100.00;101745.81;4941718;29;20024;-96
2023/01/04 01:18:58;;;;;;;4.40;2.40;;;;;;;7.41;100.00;101750.13;4925856;29;20052;-96
2023/01/04 01:21:39;;;;;;;3.75;2.05;;;;;;;7.43;100.00;101735.50;4941878;29;20043;-96
2023/01/04 01:24:23;;;;;;;6.00;2.40;;;;;;;7.48;100.00;101751.94;4940269;29;20110;-96
2023/01/04 01:27:06;;;;;;;4.07;2.05;;;;;;;7.49;100.00;101742.44;4946785;29;20078;-96
2023/01/04 01:29:32;;;;;;;5.47;2.17;;;;;;;7.50;100.00;101742.50;4956691;29;20027;-96
2023/01/04 01:31:57;;;;;;;1.97;1.83;;;;;;;7.50;100.00;101741.59;4956233;29;20060;-96
2023/01/04 01:35:10;;;;;;;5.30;2.13;;;;;;;7.53;100.00;101731.31;4956143;29;20035;-95
2023/01/04 01:37:57;;;;;;;5.85;2.22;;;;;;;7.54;100.00;101726.16;4956520;29;20079;-95
2023/01/04 01:40:43;;;;;;;;;;;;;;;7.59;100.00;101728.81;4941472;29;20032;-96
2023/01/04 01:43:59;;;;;;;3.08;2.22;;;;;;;7.53;100.00;101723.56;4936827;29;19918;-96
2023/01/04 01:46:53;;;;;;;6.03;2.35;;;;;;;7.63;100.00;101722.81;4936467;29;20484;-96
2023/01/04 01:49:49;;;;;;;4.65;2.25;;;;;;;7.61;100.00;101713.31;4936780;29;20023;-96
2023/01/04 01:52:37;;;;;;;4.20;2.08;;;;;;;7.64;100.00;101721.13;4936946;29;20032;-96
2023/01/04 01:55:35;;;;;;;2.80;2.15;;;;;;;7.66;100.00;101717.69;4936395;29;20023;-96
2023/01/04 01:58:26;;;;;;;5.03;2.28;;;;;;;7.60;100.00;101716.75;4919689;29;20421;-94
2023/01/04 02:01:13;;;;;;;3.17;2.22;;;;;;;7.61;100.00;101711.59;4918073;29;20533;-94
2023/01/04 02:04:00;;;;;;;4.50;2.20;;;;;;;7.64;100.00;101713.38;4925729;23;20032;-93
2023/01/04 02:06:53;;;;;;;4.15;2.05;;;;;;;7.71;100.00;101708.25;4916448;29;20044;-94
2023/01/04 02:09:20;;;;;;;4.55;2.10;;;;;;;7.65;100.00;101715.97;4921022;29;20039;-94
2023/01/04 02:12:10;;;;;;;4.13;2.10;;;;;;;7.66;100.00;101717.69;4921548;29;20036;-94
2023/01/04 02:14:36;;;;;;;2.88;1.80;;;;;;;7.65;100.00;101709.94;4921606;29;20119;-95
2023/01/04 02:17:47;;;;;;;2.37;1.83;;;;;;;7.69;100.00;101714.28;4920797;29;20469;-95
2023/01/04 02:21:03;;;;;;;2.55;1.80;;;;;;;7.70;100.00;101713.41;4921419;29;20140;-96
2023/01/04 02:24:00;;;;;;;;;;;;;;;7.71;100.00;101717.75;4879570;29;20032;-96
2023/01/04 02:26:59;;;;;;;2.45;1.90;;;;;;;7.77;100.00;101719.53;4920712;29;19919;-95
2023/01/04 02:29:24;;;;;;;2.00;1.80;;;;;;;7.75;100.00;101722.09;4921092;29;20027;-94
2023/01/04 02:32:13;;;;;;;2.33;1.73;;;;;;;7.73;100.00;101705.72;4920865;29;20488;-95
2023/01/04 02:38:26;;;;;;;1.75;1.60;;;;;;;7.80;100.00;101696.31;4921864;29;20127;-96
2023/01/04 02:41:18;;;;;;;2.15;1.52;;;;;;;7.82;100.00;101677.38;4921232;29;20195;-96
2023/01/04 02:50:29;;;;;;;2.08;1.50;;;;;;;7.88;100.00;101676.56;4922183;29;20099;-95
2023/01/04 02:50:35;;;;;;;1.70;1.60;;;;;;;7.93;100.00;101667.16;4915732;29;20470;-95
2023/01/04 02:53:21;;;;;;;2.95;1.65;;;;;;;7.92;100.00;101657.66;4920459;29;20122;-94
2023/01/04 02:56:05;;;;;;;1.85;1.50;;;;;;;7.95;100.00;101655.06;4921110;29;20055;-96
2023/01/04 02:59:30;;;;;;;2.58;1.60;;;;;;;8.00;100.00;101663.75;4920719;29;20043;-94
2023/01/04 03:08:42;;;;;;;1.50;1.40;;;;;;;8.08;100.00;101662.94;4920659;29;20095;-93
2023/01/04 03:14:27;;;;;;;1.88;1.50;;;;;;;8.08;100.00;101640.56;4938497;29;20047;-94
2023/01/04 03:17:23;;;;;;;1.75;1.42;;;;;;;8.11;100.00;101653.47;4922299;29;20080;-94
2023/01/04 03:20:06;;;;;;;1.35;1.25;;;;;;;8.16;100.00;101641.47;4920580;29;20371;-94
2023/01/04 03:37:38;;;;;;;1.77;1.67;;;;;;;8.23;100.00;101626.00;4939110;29;20055;-94
2023/01/04 03:49:56;;;;;;;1.83;1.73;;;;;;;8.35;100.00;101598.50;4938752;29;20050;-94
2023/01/04 03:52:55;;;;;;;2.10;1.77;;;;;;;8.35;100.00;101592.44;4938610;29;20139;-94
2023/01/04 03:55:42;;;;;;;2.00;1.90;;;;;;;8.41;100.00;101584.75;4938289;29;20036;-94
2023/01/04 03:58:25;;;;;;;2.33;1.65;;;;;;;8.40;100.00;101567.50;4956451;29;20035;-94
2023/01/04 04:01:06;;;;;;;2.17;1.80;;;;;;;8.42;100.00;101586.47;4957314;29;20019;-94
2023/01/04 04:09:23;;;;;;;2.00;1.80;;;;;;;8.53;100.00;101573.59;4957475;29;20043;-94
2023/01/04 04:12:11;;;;;;;2.20;2.00;;;;;;;8.49;100.00;101582.22;4957666;29;20028;-93
2023/01/04 04:14:58;;;;;;;2.00;1.75;;;;;;;8.52;100.00;101579.63;4957563;29;20023;-94
2023/01/04 04:17:23;;;;;;;3.55;1.95;;;;;;;8.50;100.00;101565.81;4956757;29;20062;-95
2023/01/04 04:20:01;;;;;;;3.30;2.20;;;;;;;8.54;100.00;101574.50;4957116;29;20015;-95
2023/01/04 04:22:27;;;;;;;3.58;2.13;;;;;;;8.56;100.00;101568.47;4957359;29;20388;-94
2023/01/04 04:24:52;;;;;;;2.87;1.90;;;;;;;8.58;100.00;101545.16;4957084;29;20025;-94
2023/01/04 04:27:30;;;;;;;2.47;2.00;;;;;;;8.58;100.00;101540.00;4956633;29;20015;-95
2023/01/04 04:29:56;;;;;;;1.90;1.80;;;;;;;8.59;100.00;101547.78;4953918;28;20062;-95
2023/01/04 04:35:44;;;;;;;2.17;1.90;;;;;;;8.61;100.00;101546.03;4883594;29;20100;-95
2023/01/04 04:38:25;;;;;;;2.20;2.00;;;;;;;8.71;100.00;101535.75;4945650;23;20048;-95
2023/01/04 04:43:35;;;;;;;2.70;2.10;;;;;;;8.71;100.00;101536.59;4919308;29;20111;-96
2023/01/04 04:46:22;;;;;;;2.80;2.17;;;;;;;8.73;100.00;101534.88;4918686;29;20418;-96
2023/01/04 04:52:03;;;;;;;3.20;2.10;;;;;;;8.78;100.00;101532.31;4918467;29;20075;-96
2023/01/04 04:54:29;;;;;;;2.83;2.10;;;;;;;8.83;100.00;101525.44;4918325;29;20028;-95
2023/01/04 04:57:09;;;;;;;3.17;2.20;;;;;;;8.84;100.00;101521.13;4918750;29;20031;-96
2023/01/04 04:59:35;;;;;;;2.28;2.08;;;;;;;8.86;100.00;101519.41;4918687;29;20438;-94
2023/01/04 05:02:01;;;;;;;2.77;2.20;;;;;;;8.87;100.00;101510.78;4918652;29;20051;-95
2023/01/04 05:07:38;;;;;;;4.03;2.10;;;;;;;8.91;100.00;101510.78;4926138;23;20672;-96
2023/01/04 05:10:21;;;;;;;2.90;2.10;;;;;;;8.93;100.00;101505.59;4918637;29;20326;-94
2023/01/04 05:13:07;;;;;;;4.15;2.40;;;;;;;8.95;100.00;101498.72;4918193;29;20111;-96
2023/01/04 05:15:36;;;;;;;3.97;2.20;;;;;;;8.98;100.00;101503.03;4918718;29;20035;-94
2023/01/04 05:18:20;;;;;;;2.67;2.20;;;;;;;9.02;100.00;101510.78;4900383;29;20047;-96
2023/01/04 05:20:46;;;;;;;2.10;1.95;;;;;;;9.02;100.00;101500.44;4918445;29;20035;-95
2023/01/04 05:23:34;;;;;;;4.00;2.20;;;;;;;9.03;100.00;101494.41;4918083;29;20024;-94
2023/01/04 05:26:00;;;;;;;3.13;2.03;;;;;;;9.07;100.00;101497.84;4918128;29;20025;-95
2023/01/04 05:28:26;;;;;;;4.47;2.00;;;;;;;9.08;100.00;101491.81;4917454;29;20111;-95
2023/01/04 05:31:06;;;;;;;3.73;2.17;;;;;;;9.11;100.00;101494.41;4918197;29;20036;-95
2023/01/04 05:33:32;;;;;;;2.35;1.80;;;;;;;9.10;100.00;101484.91;4917675;29;20095;-95
2023/01/04 05:36:16;;;;;;;4.57;2.57;;;;;;;9.16;100.00;101478.88;4918375;29;20070;-94
2023/01/04 05:38:41;;;;;;;2.83;2.30;;;;;;;9.15;100.00;101474.56;4917532;29;20027;-95
2023/01/04 05:44:19;;;;;;;2.75;2.15;;;;;;;9.25;100.00;101477.16;4918217;29;20043;-96
2023/01/04 05:46:45;;;;;;;3.15;2.20;;;;;;;9.22;100.00;101465.94;4917378;29;20470;-95
2023/01/04 05:49:28;;;;;;;3.70;2.20;;;;;;;9.21;100.00;101466.81;4917485;29;20091;-95
2023/01/04 05:52:06;;;;;;;2.78;2.05;;;;;;;9.22;100.00;101463.38;4917809;29;20032;-96
2023/01/04 05:54:31;;;;;;;3.05;1.95;;;;;;;9.22;100.00;101463.38;4917646;29;20109;-96
2023/01/04 05:57:15;;;;;;;2.77;1.80;;;;;;;9.20;100.00;101463.34;4925918;29;20063;-96
2023/01/04 05:59:40;;;;;;;2.47;2.03;;;;;;;9.23;100.00;101457.31;4936698;29;20106;-96
2023/01/04 06:04:49;;;;;;;3.17;2.00;;;;;;;9.23;100.00;101450.41;4925563;23;20044;-96
2023/01/04 06:07:36;;;;;;;2.93;1.80;;;;;;;9.30;100.00;101452.97;4917592;29;20258;-95
2023/01/04 06:10:12;;;;;;;2.05;1.80;;;;;;;9.27;100.00;101453.84;4917924;29;20028;-95
2023/01/04 06:12:49;;;;;;;2.47;1.90;;;;;;;9.27;100.00;101459.91;4917380;29;20028;-96
2023/01/04 06:15:15;;;;;;;2.97;1.90;;;;;;;9.31;100.00;101467.66;4917204;29;20554;-96
2023/01/04 06:17:58;;;;;;;2.13;1.93;;;;;;;9.35;100.00;101467.66;4924533;23;20027;-95
2023/01/04 06:20:39;;;;;;;1.80;1.70;;;;;;;9.38;100.00;101464.22;4924865;23;20048;-96
2023/01/04 06:23:04;;;;;;;3.28;1.90;;;;;;;9.38;100.00;101474.59;4924043;29;20032;-96
2023/01/04 06:25:49;;;;;;;1.80;1.70;;;;;;;9.40;100.00;101465.94;4922440;29;20466;-96
2023/01/04 06:28:24;;;;;;;1.80;1.70;;;;;;;9.40;100.00;101467.69;4936324;29;20031;-96
2023/01/04 06:31:06;;;;;;;2.83;1.90;;;;;;;9.46;100.00;101443.50;4936371;29;20055;-95
2023/01/04 06:34:39;;;;;;;1.90;1.80;;;;;;;9.47;100.00;101445.19;4947792;23;20505;-95
2023/01/04 06:37:32;;;;;;;2.00;1.80;;;;;;;9.48;100.00;101446.91;4917448;29;20131;-94
2023/01/04 06:40:03;;;;;;;1.92;1.80;;;;;;;9.46;100.00;101438.31;4917737;29;20117;-95
2023/01/04 06:42:47;;;;;;;3.08;1.70;;;;;;;9.48;100.00;101457.28;4917087;29;20079;-96
2023/01/04 06:49:02;;;;;;;1.85;1.50;;;;;;;9.50;100.00;101465.94;4917392;29;20132;-95
2023/01/04 06:51:33;;;;;;;3.17;1.63;;;;;;;9.48;100.00;101460.75;4917768;29;20031;-96
2023/01/04 06:54:08;;;;;;;1.63;1.52;;;;;;;9.51;100.00;101467.66;4919984;29;20114;-96
2023/01/04 06:59:10;;;;;;;2.28;1.73;;;;;;;9.52;100.00;101444.31;4927161;23;20060;-96
2023/01/04 07:01:35;;;;;;;2.10;1.90;;;;;;;9.54;100.00;101446.94;4921003;29;20024;-94
2023/01/04 07:04:19;;;;;;;1.83;1.63;;;;;;;9.56;100.00;101447.81;4920962;29;20083;-96
2023/01/04 07:06:56;;;;;;;1.63;1.52;;;;;;;9.57;100.00;101447.78;4920816;29;20115;-96
2023/01/04 07:12:27;;;;;;;;;;;;;;;;;;;;;
2023/01/04 07:14:53;;;;;;;3.72;1.80;;;;;;;9.68;100.00;101447.75;4922124;29;20044;-96
2023/01/04 07:17:30;;;;;;;3.23;1.90;;;;;;;9.74;100.00;101437.38;4938817;29;20030;-92
2023/01/04 07:20:06;;;;;;;3.70;1.80;;;;;;;9.73;100.00;101422.69;4939125;29;20028;-92
2023/01/04 07:22:31;;;;;;;2.85;1.80;;;;;;;9.74;100.00;101418.38;4943266;29;20027;-96
2023/01/04 07:25:23;;;;;;;2.13;1.80;;;;;;;9.81;100.00;101424.41;4939558;29;20143;-92
2023/01/04 07:28:07;;;;;;;2.13;1.70;;;;;;;9.84;100.00;101414.03;4887811;29;20044;-92
2023/01/04 07:30:33;;;;;;;2.78;1.75;;;;;;;9.92;100.00;101412.25;4920234;29;20028;-93
2023/01/04 07:32:58;;;;;;;3.93;1.90;;;;;;;9.93;100.00;101415.75;4920068;29;20079;-92
2023/01/04 07:35:35;;;;;;;3.13;1.80;;;;;;;10.02;100.00;101413.09;4920027;29;20493;-92
2023/01/04 07:38:01;;;;;;;2.72;1.90;;;;;;;10.00;100.00;101420.03;4919954;29;20036;-93
2023/01/04 07:40:26;;;;;;;1.70;1.60;;;;;;;10.04;100.00;101408.78;4920110;29;20031;-93
2023/01/04 07:42:57;;;;;;;1.77;1.67;;;;;;;10.01;100.00;101404.47;4919710;29;20024;-91
2023/01/04 07:45:38;;;;;;;1.63;1.50;;;;;;;10.05;100.00;101397.53;4927926;29;20039;-96
2023/01/04 07:48:04;;;;;;;1.67;1.52;;;;;;;10.01;100.00;101401.88;4976505;23;20063;-96
2023/01/04 07:50:38;;;;;;;2.87;1.37;;;;;;;10.01;100.00;101401.88;4945667;29;20119;-96
2023/01/04 07:53:04;;;;;;;2.70;1.60;;;;;;;10.08;100.00;101391.47;4944788;29;20111;-96
2023/01/04 07:55:29;;;;;;;2.67;1.67;;;;;;;10.07;100.00;101382.84;4944548;29;20051;-96
2023/01/04 07:58:15;;;;;;;1.40;1.30;;;;;;;10.10;100.00;101380.22;4942576;29;20465;-96
2023/01/04 08:00:40;;;;;;;3.28;1.65;;;;;;;10.10;100.00;101379.38;4940816;29;20031;-96
2023/01/04 08:05:53;;;;;;;2.22;1.40;;;;;;;10.11;100.00;101379.34;4938430;29;20537;-95
2023/01/04 08:08:34;;;;;;;1.40;1.30;;;;;;;10.13;100.00;101376.75;4938011;29;20027;-96
2023/01/04 08:11:05;;;;;;;1.77;1.50;;;;;;;10.14;100.00;101384.53;4938758;29;20075;-94
2023/01/04 08:13:30;;;;;;;3.58;1.60;;;;;;;10.18;100.00;101395.75;4938860;29;20042;-89
2023/01/04 08:15:56;;;;;;;3.60;1.80;;;;;;;10.18;100.00;101393.16;4925340;29;20056;-88
2023/01/04 08:18:36;;;;;;;3.90;1.50;;;;;;;10.20;100.00;101383.63;4919355;29;20354;-93
2023/01/04 08:21:03;;;;;;;2.40;1.50;;;;;;;10.26;100.00;101391.38;4918783;29;20024;-93
2023/01/04 08:23:52;;;;;;;4.82;1.65;;;;;;;10.24;100.00;101400.91;4920859;29;20040;-93
2023/01/04 08:26:20;;;;;;;3.47;1.67;;;;;;;10.27;100.00;101405.22;4923506;29;20039;-95
2023/01/04 08:28:46;;;;;;;4.03;1.70;;;;;;;10.25;100.00;101402.63;4923309;29;20103;-95
2023/01/04 08:31:31;;;;;;;1.70;1.60;;;;;;;10.27;100.00;101411.25;4936078;29;20062;-96
2023/01/04 08:33:57;;;;;;;1.60;1.40;;;;;;;10.26;100.00;101413.88;4954826;29;20024;-96
2023/01/04 08:36:46;;;;;;;2.45;1.50;;;;;;;10.30;100.00;101423.38;4951798;28;20024;-96
2023/01/04 08:39:24;;;;;;;2.55;1.70;;;;;;;10.31;100.00;101404.31;4951824;29;20059;-95
2023/01/04 08:41:55;;;;;;;2.65;1.58;;;;;;;10.33;100.00;101418.16;4953647;29;20481;-96
2023/01/04 08:44:21;;;;;;;2.55;1.70;;;;;;;10.38;100.00;101407.78;4953001;28;20028;-96
2023/01/04 08:46:53;;;;;;;4.43;1.63;;;;;;;10.41;100.00;101411.25;4946321;29;20031;-96
2023/01/04 08:49:19;;;;;;;1.92;1.70;;;;;;;10.40;100.00;101414.72;4925120;29;20458;-96
2023/01/04 08:52:03;;;;;;;1.47;1.30;;;;;;;10.42;100.00;101436.28;4919161;29;20076;-93
2023/01/04 08:54:29;;;;;;;3.13;1.55;;;;;;;10.46;100.00;101422.44;4918658;29;20040;-96
2023/01/04 08:56:55;;;;;;;3.45;1.67;;;;;;;10.44;100.00;101421.59;4917389;29;20040;-94
2023/01/04 08:59:35;;;;;;;2.93;1.50;;;;;;;10.48;100.00;101430.22;4919403;29;20028;-93
2023/01/04 09:02:00;;;;;;;1.92;1.50;;;;;;;10.44;100.00;101423.34;4917981;29;20102;-93
2023/01/04 09:04:34;;;;;;;3.63;1.80;;;;;;;10.47;100.00;101411.19;4918047;29;20028;-93
2023/01/04 09:07:15;;;;;;;3.05;1.60;;;;;;;10.55;100.00;101411.16;4918187;29;20027;-91
2023/01/04 09:09:40;;;;;;;4.30;1.70;;;;;;;10.52;100.00;101416.34;4914747;29;20024;-92
2023/01/04 09:12:24;;;;;;;3.30;1.63;;;;;;;10.56;100.00;101414.59;4916657;23;20567;-92
2023/01/04 09:14:49;;;;;;;3.20;1.50;;;;;;;10.55;100.00;101411.16;4937217;29;20040;-91
2023/01/04 09:17:34;;;;;;;3.57;1.60;;;;;;;10.58;100.00;101412.88;4935498;29;20028;-92
2023/01/04 09:19:59;;;;;;;6.07;1.73;;;;;;;10.63;100.00;101400.72;4918313;29;20068;-92
2023/01/04 09:22:42;;;;;;;3.27;1.60;;;;;;;10.62;100.00;101405.03;4936503;29;20052;-93
2023/01/04 09:25:26;;;;;;;2.78;1.52;;;;;;;10.64;100.00;101411.09;4936731;29;20028;-93
2023/01/04 09:28:06;;;;;;;2.83;1.58;;;;;;;10.62;100.00;101412.81;4937091;29;20516;-94
2023/01/04 09:30:32;;;;;;;3.53;1.40;;;;;;;10.82;100.00;101412.69;4949726;29;20039;-95
2023/01/04 09:33:13;;;;;;;2.77;1.60;;;;;;;10.65;100.00;101422.31;4956054;29;20086;-94
2023/01/04 09:36:16;;;;;;;3.08;1.60;;;;;;;10.60;100.00;101417.16;4956084;29;20511;-96
2023/01/04 09:39:02;;;;;;;4.53;1.50;;;;;;;10.61;100.00;101405.91;4897321;29;20032;-95
2023/01/04 09:45:19;;;;;;;1.48;1.27;;;;;;;10.62;100.00;101420.63;4956537;29;20090;-93
2023/01/04 09:48:11;;;;;;;2.17;1.50;;;;;;;10.54;100.00;101406.84;4955836;29;20035;-93
2023/01/04 09:50:57;;;;;;;2.60;1.70;;;;;;;10.53;100.00;101407.69;4955346;29;20023;-94
2023/01/04 09:53:43;;;;;;;2.38;1.55;;;;;;;10.51;100.00;101401.66;4951940;29;20189;-94
2023/01/04 09:56:33;;;;;;;;;;;;;;;10.53;100.00;101414.63;4937264;29;20024;-93
2023/01/04 09:59:04;;;;;;;4.18;1.80;;;;;;;10.49;100.00;101412.06;4896851;29;19916;-95
2023/01/04 10:01:42;;;;;;;3.33;1.60;;;;;;;10.51;100.00;101409.44;4897021;29;20052;-93
2023/01/04 10:04:53;;;;;;;2.42;1.75;;;;;;;10.55;100.00;101408.56;4896978;29;20037;-92
2023/01/04 10:07:43;;;;;;;2.75;1.38;;;;;;;10.55;100.00;101408.56;4897054;29;20447;-94
2023/01/04 10:10:30;;;;;;;2.35;1.60;;;;;;;10.55;100.00;101405.09;4916265;29;20035;-93
2023/01/04 10:16:35;;;;;;;1.70;1.52;;;;;;;10.52;100.00;101398.19;4936671;29;20126;-92
2023/01/04 10:19:26;;;;;;;2.35;1.85;;;;;;;10.50;100.00;101394.72;4936925;29;20026;-94
2023/01/04 10:22:23;;;;;;;4.03;1.80;;;;;;;10.50;100.00;101407.72;4936619;29;20039;-96
2023/01/04 10:25:28;;;;;;;3.20;1.77;;;;;;;10.52;100.00;101399.94;4937268;29;20024;-96
2023/01/04 10:28:24;;;;;;;2.47;2.00;;;;;;;10.48;100.00;101397.34;4917189;29;20044;-96
2023/01/04 10:31:24;;;;;;;4.00;1.88;;;;;;;10.44;100.00;101390.44;4922239;29;20035;-96
2023/01/04 10:34:36;;;;;;;4.25;1.75;;;;;;;10.47;100.00;101399.97;4940717;23;20067;-96
2023/01/04 10:37:34;;;;;;;3.03;2.00;;;;;;;10.45;100.00;101407.75;4941038;29;20026;-95
2023/01/04 10:40:10;;;;;;;3.30;2.17;;;;;;;10.48;100.00;101409.44;4920586;29;20043;-96
2023/01/04 10:42:55;;;;;;;2.38;1.90;;;;;;;10.48;100.00;101386.97;4914668;29;20486;-96
2023/01/04 10:45:32;;;;;;;3.70;2.00;;;;;;;10.43;100.00;101367.97;4904794;29;20036;-95
2023/01/04 10:48:28;;;;;;;2.88;2.08;;;;;;;10.47;100.00;101376.59;4902255;29;20040;-96
2023/01/04 10:51:06;;;;;;;1.95;1.75;;;;;;;10.43;100.00;101383.53;4911132;29;20025;-96
2023/01/04 10:53:59;;;;;;;2.92;1.90;;;;;;;10.51;100.00;101380.88;4912434;29;20029;-96
2023/01/04 10:56:42;;;;;;;4.82;1.90;;;;;;;10.46;100.00;101380.91;4917244;29;20036;-95
2023/01/04 10:59:40;;;;;;;3.85;1.80;;;;;;;10.47;100.00;101379.22;4914336;29;20032;-95
2023/01/04 11:02:30;;;;;;;4.30;2.00;;;;;;;10.49;100.00;101378.31;4921831;29;20040;-96
2023/01/04 11:05:33;;;;;;;3.70;1.90;;;;;;;10.49;100.00;101390.41;4927727;29;20051;-96
2023/01/04 11:08:11;;;;;;;2.67;1.70;;;;;;;10.48;100.00;101391.28;4918689;29;20028;-96
2023/01/04 11:10:58;;;;;;;2.25;1.73;;;;;;;10.47;100.00;101389.59;4918742;29;20028;-96
2023/01/04 11:13:45;;;;;;;1.70;1.60;;;;;;;10.48;100.00;101396.47;4922151;29;20035;-94
2023/01/04 11:16:32;;;;;;;3.03;1.80;;;;;;;10.49;100.00;101386.09;5059536;23;20072;-96
2023/01/04 11:19:08;;;;;;;2.95;1.60;;;;;;;10.50;100.00;101384.34;4910736;29;20104;-96
2023/01/04 11:21:43;;;;;;;2.05;1.50;;;;;;;10.54;100.00;101382.59;4922670;29;20032;-96
2023/01/04 11:24:30;;;;;;;3.03;1.40;;;;;;;10.54;100.00;101385.19;4908125;29;20179;-96
2023/01/04 11:27:16;;;;;;;3.22;1.30;;;;;;;10.52;100.00;101379.19;4910953;29;20455;-95
2023/01/04 11:29:53;;;;;;;1.92;1.38;;;;;;;10.52;100.00;101381.78;4906886;29;20061;-96
2023/01/04 11:32:30;;;;;;;1.20;1.10;;;;;;;10.54;100.00;101378.28;4903726;29;20032;-96
2023/01/04 11:37:44;;;;;;;1.30;1.08;;;;;;;10.54;100.00;101377.41;4902155;29;20119;-96
2023/01/04 11:40:15;;;;;;;1.60;1.15;;;;;;;10.55;100.00;101389.50;4902770;29;20039;-96
2023/01/04 11:43:05;;;;;;;0.73;0.73;;;;;;;10.54;100.00;101385.19;4901429;29;20393;-94
2023/01/04 11:45:30;;;;;;;0.88;0.80;;;;;;;10.53;100.00;101399.06;4904749;29;20051;-91
2023/01/04 11:47:58;;;;;;;2.53;1.00;;;;;;;10.52;100.00;101381.78;4903313;29;20107;-95
2023/01/04 11:50:39;;;;;;;1.23;1.05;;;;;;;10.52;100.00;101384.38;4901550;29;20111;-96
2023/01/04 11:53:33;;;;;;;1.08;1.00;;;;;;;10.55;100.00;101384.31;4900735;29;20124;-94
2023/01/04 11:56:21;;;;;;;1.30;0.90;;;;;;;10.53;100.00;101388.69;4900978;29;20029;-95
2023/01/04 11:59:04;;;;;;;1.15;0.90;;;;;;;10.53;100.00;101386.94;4898080;29;20077;-96
2023/01/04 12:01:39;;;;;;;0.80;0.60;;;;;;;10.53;100.00;101396.47;4900862;29;20028;-95
2023/01/04 12:04:25;;;;;;;0.98;0.85;;;;;;;10.55;100.00;101392.09;4901391;29;20474;-96
2023/01/04 12:06:53;;;;;;;0.65;0.57;;;;;;;10.56;100.00;101379.13;4901480;29;20028;-96
2023/01/04 12:09:20;;;;;;;0.88;0.80;;;;;;;10.53;100.00;101391.28;4901258;29;20029;-96
2023/01/04 12:11:56;;;;;;;0.95;0.60;;;;;;;10.54;100.00;101385.19;4901649;29;20486;-96
2023/01/04 12:14:34;;;;;;;2.75;0.95;;;;;;;10.55;100.00;101382.59;4900953;29;20470;-96
2023/01/04 12:17:50;;;;;;;0.98;0.98;;;;;;;10.55;100.00;101385.19;4900416;29;20052;-96
2023/01/04 12:21:05;;;;;;;0.75;0.75;;;;;;;10.56;100.00;101389.53;4900433;29;20495;-96
2023/01/04 12:23:55;;;;;;;1.30;0.70;;;;;;;10.58;100.00;101392.09;4900716;29;20569;-96
2023/01/04 12:26:23;;;;;;;1.67;0.82;;;;;;;10.57;100.00;101386.06;4901791;29;20049;-95
2023/01/04 12:28:57;;;;;;;0.77;0.77;;;;;;;10.59;100.00;101386.88;4900886;29;20032;-96
2023/01/04 12:31:29;;;;;;;1.50;0.70;;;;;;;10.63;100.00;101385.16;4892794;29;20426;-96
2023/01/04 12:33:59;;;;;;;0.70;0.70;;;;;;;10.63;100.00;101377.38;4900395;29;20031;-96
2023/01/04 12:36:49;;;;;;;0.65;0.65;;;;;;;10.69;100.00;101386.84;4900247;29;20024;-95
2023/01/04 12:39:33;;;;;;;0.88;0.88;;;;;;;10.69;100.00;101372.13;4900108;29;20033;-95
2023/01/04 12:42:25;;;;;;;0.93;0.93;;;;;;;10.72;100.00;101379.91;4900054;29;20037;-94
2023/01/04 12:44:50;;;;;;;1.70;0.93;;;;;;;10.77;100.00;101387.66;4900246;29;20036;-94
2023/01/04 12:50:27;;;;;;;1.83;1.60;;;;;;;10.78;100.00;101381.59;4903938;29;20100;-94
2023/01/04 12:53:51;;;;;;;1.52;1.42;;;;;;;10.80;100.00;101378.09;4900391;29;20036;-94
2023/01/04 12:56:19;;;;;;;1.70;1.60;;;;;;;10.83;100.00;101364.22;4900430;29;20036;-91
2023/01/04 12:59:08;;;;;;;1.40;1.40;;;;;;;10.84;100.00;101363.34;4899971;29;20021;-92
2023/01/04 13:02:14;;;;;;;1.30;1.30;;;;;;;10.83;100.00;101361.63;4900752;29;20028;-91
2023/01/04 13:04:52;;;;;;;1.65;1.55;;;;;;;10.82;100.00;101362.50;4908124;29;20024;-92
2023/01/04 13:07:55;;;;;;;1.20;1.20;;;;;;;10.82;100.00;101352.09;4908550;29;20099;-93
2023/01/04 13:10:50;;;;;;;1.48;1.38;;;;;;;10.82;100.00;101373.75;4888153;29;20025;-91
2023/01/04 13:13:24;;;;;;;1.50;1.40;;;;;;;10.81;100.00;101360.75;4904399;29;20085;-91
2023/01/04 13:16:07;;;;;;;1.60;1.50;;;;;;;10.85;100.00;101359.88;4907820;29;20033;-92
2023/01/04 13:18:53;;;;;;;1.70;1.60;;;;;;;10.82;100.00;101365.09;4908447;29;20036;-95
2023/01/04 13:21:44;;;;;;;1.52;1.42;;;;;;;10.77;100.00;101354.75;4889039;29;20048;-92
2023/01/04 13:25:11;;;;;;;1.27;1.27;;;;;;;10.78;100.00;101366.00;4883298;29;20108;-92
2023/01/04 13:27:58;;;;;;;1.13;1.13;;;;;;;10.81;100.00;101366.84;4806064;29;20034;-92
2023/01/04 13:30:49;;;;;;;1.27;1.27;;;;;;;10.81;100.00;101374.63;4814962;29;20038;-92
2023/01/04 13:33:27;;;;;;;1.40;1.30;;;;;;;10.83;100.00;101372.00;4877631;29;20033;-93
2023/01/04 13:36:11;;;;;;;1.63;1.52;;;;;;;10.88;100.00;101379.75;4913367;29;20025;-91
2023/01/04 13:38:55;;;;;;;1.88;1.77;;;;;;;10.84;100.00;101362.50;4917924;29;20103;-93
2023/01/04 13:41:21;;;;;;;1.90;1.80;;;;;;;10.84;100.00;101367.69;4919278;29;20051;-92
2023/01/04 13:44:32;;;;;;;2.30;2.10;;;;;;;10.91;100.00;101375.44;4924500;29;20081;-92
2023/01/04 13:46:59;;;;;;;2.42;2.22;;;;;;;10.89;100.00;101366.78;4897443;29;20090;-92
2023/01/04 13:49:39;;;;;;;3.00;2.67;;;;;;;10.91;100.00;101367.63;4897708;29;20031;-92
2023/01/04 13:54:44;;;;;;;3.03;2.72;;;;;;;10.97;100.00;101371.91;4956537;23;20060;-94
2023/01/04 14:00:51;;;;;;;4.03;3.15;;;;;;;11.01;100.00;101375.34;4917563;29;20524;-91